En poursuivant votre navigation sur ce site, vous acceptez l'utilisation de cookies pour vous proposer des contenus et services adaptés. Mentions légales.
  

21/09/2020 Retour sur un épisode de chaleur exceptionnel en septembre : CLIQUEZ ICI
21/09/2020  Mise à jour des tableaux d'analyses décadaires : rubrique climatologie
02/09/2020 Mise en ligne de la synthèse climatologique d'août 2020 : 
CLIQUEZ ICI
01/09/2020  Mise à jour des tableaux d'analyses décadaires, mensuelles et annuelles : rubrique climatologie   

NOAA COMPLET DU MOIS

Si l'entête du tableau ne s'affiche pas correctement, => actualisez la page (F5 avec Internet Explorer, Chrome...).
Utilisez l'ascenseur sur la droite des lignes du tableau pour faire défiler verticalement les jours du mois.

TABLEAU DES DONNEES COMPLETES NOAA de AOUT 2020

DATE TEMPERATURE
sous abri
TEMPARATURE 
au sol
VENT  et  Indice de Refroidissement Eolien  PRECIPITATIONS (en mm/m2)
et Intensité
PRESSION ATMOSPHERIQUE (en hPa) HUMIDITE de l'AIR RADIATIONS SOLAIRES (en W/m2)
Mini Moy. Maxi Mini Moy. Maxi Moyen Rafale I.R.E.
Minii
Précip. jour Cumul mois Intensité Maxi Mini Moy. Maxi Mini Moy. Maxi Pic maxi du jour Total jour
01/08/20 20.8° 27.4° 35.9° 18.9° 28.1° 39.4° 5.3km/h dir SO 30.6km/h dir S 20.8° 0 0 1011 1013.1 1014.6 35% 58.3% 80% 844 74 977
02/08/20 19° 22.1° 26.3° 17.8° 22.4° 31.7° 5.1km/h dir ONO 24.1km/h dir ONO 19° 0.2 0.2 1012.5 1013.7 1014.7 63% 80.7% 92% 1150 40 213
03/08/20 13.7° 18° 23.4° 12.2° 18.4° 27.8° 6.1km/h dir ONO 25.7km/h dir N 13.7° 1.4 1.6 3mm/h 1011.7 1012.7 1013.9 50% 79.8% 94% 1100 39 247
04/08/20 11.5° 18° 25.1° 10° 18.5° 28.3° 6.6km/h dir NNE 27.4km/h dir NNE 11.5° 0 1.6 1013.5 1015.1 1016.5 44% 71.8% 94% 1109 70 115
05/08/20 10.7° 20.2° 29.4° 8.9° 20.2° 33.3° 5.6km/h dir N 25.7km/h dir O 10.7° 0 1.6 1013 1014.6 1015.6 34% 62% 93% 874 81 195
06/08/20 11.7° 22.1° 31.9° 10° 22° 35.6° 2.9km/h dir N 25.7km/h dir N 11.7° 0 1.6 1014.8 1015.9 1017.3 30% 60.1% 92% 868 79 858
07/08/20 13.3° 24.6° 35.8° 11.7° 24.3° 39.4° 2.6km/h dir NNE 16.1km/h dir NNE 13.4° 0 1.6 1014.6 1016.3 1017.9 25% 56.4% 89% 867 80 417
08/08/20 15.6° 26.3° 36.5° 13.3° 25.8° 40.6° 3.2km/h dir NNE 20.9km/h dir NNE 15.6° 0 1.6 1014.3 1016.3 1018.3 20% 51.3% 83% 877 79 300
09/08/20 16.9° 27° 37.2° 15° 26.3° 41.1° 2.7km/h dir SSE 17.7km/h dir ONO 16.9° 0 1.6 1011.1 1014.2 1015.8 26% 56.8% 83% 846 65 272
10/08/20 20.1° 27.3° 36.8° 17.8° 27.6° 40.6° 4.8km/h dir S 37km/h dir OSO 20.2° 0 1.6 1009.4 1011.6 1014 30% 54.3% 78% 888 33 255
11/08/20 18.1° 27.3° 36.8° 16.7° 27.3° 40.6° 3.2km/h dir SE 20.9km/h dir S 18.2° 0 1.6 1010.6 1012.9 1014.5 29% 56.9% 86% 823 37 730
12/08/20 20.6° 28.4° 34.8° 18.3° 28.2° 38.9° 7.2km/h dir SE 40.2km/h dir SSE 20.6° 0 1.6 1010.6 1012 1013.1 28% 48.2% 80% 1028 29 403
13/08/20 19.7° 25.1° 33.1° 18.3° 25.4° 38.3° 5.5km/h dir SE 24.1km/h dir S 19.7° 1.6 3.2 2.2mm/h 1011.1 1012.5 1014.6 38% 59.6% 88% 1053 26 735
14/08/20 18.1° 22.6° 29.2° 17.8° 23° 33.3° 2.9km/h dir O 17.7km/h dir ONO 18.1° 1 4.2 7.2mm/h 1012.8 1014.4 1015.7 48% 75.5% 95% 1146 26 257
15/08/20 16.1° 23.4° 31.8° 14.4° 23.6° 36.1° 3.1km/h dir NNE 17.7km/h dir NNE 16.1° 0 4.2 1009.5 1012.4 1014.2 33% 66% 95% 951 38 135
16/08/20 18.1° 21.2° 28.6° 16.1° 20.9° 32.8° 2.7km/h dir ENE 16.1km/h dir SSO 18.2° 2.4 6.6 5.6mm/h 1008.7 1010 1011.7 50% 78.8% 94% 1102 18 746
17/08/20 16.3° 21.4° 28.1° 15.6° 21.8° 32.2° 1.9km/h dir SE 16.1km/h dir SO 16.3° 0 6.6 1010.1 1011.5 1012.3 45% 73.2% 96% 998 52 938
18/08/20 15.3° 22.3° 30.2° 13.9° 22.5° 35° 2.7km/h dir O 16.1km/h dir SO 15.3° 0 6.6 1010 1011.7 1013 38% 65.8% 90% 1201 67 263
19/08/20 14.9° 24.1° 32.3° 13.9° 24.3° 36.7° 3.9km/h dir SE 29km/h dir E 14.9° 0 6.6 1005.4 1008.5 1011.5 30% 60.8% 94% 1004 62 766
20/08/20 22.6° 28.4° 35.6° 21.1° 28.8° 38.9° 13.2km/h dir SSE 45.1km/h dir SSE 22.7° 0 6.6 1006.2 1007.4 1008.5 32% 50.3% 66% 817 73 261
21/08/20 23.3° 29° 36.5° 22.2° 29.3° 40.6° 11.6km/h dir SSE 43.5km/h dir SSE 23.2° 0 6.6 1008.5 1010.6 1015 29% 47.1% 67% 1004 68 282
22/08/20 18.5° 22.4° 27.7° 17.2° 22.8° 31.7° 4km/h dir O 27.4km/h dir O 18.5° 9.2 15.8 41.8mm/h 1014.8 1018.7 1020.2 43% 71.1% 95% 981 56 748
23/08/20 15.3° 20.6° 25.9° 12.8° 20.7° 31.1° 5km/h dir O 24.1km/h dir ONO 15.4° 0 15.8 1018.5 1019.9 1021.6 42% 64.3% 85% 1014 62 192
24/08/20 11.5° 19° 26.8° 10.6° 19.2° 31.1° 4km/h dir NE 24.1km/h dir N 11.5° 0 15.8 1015.1 1017.5 1019.5 36% 63.4% 91% 868 71 051
25/08/20 10.7° 21.2° 31.6° 9.4° 21.4° 35.6° 4.7km/h dir SSE 27.4km/h dir 0 10.8° 0 15.8 1010.2 1013.1 1015.7 25% 56.3% 91% 967 57 993
26/08/20 18.2° 22.6° 28.2° 15.6° 22.5° 31.7° 4.5km/h dir ONO 22.5km/h dir 0 18.3° 0 15.8 1013.4 1017.1 1019.4 42% 57.5% 78% 1114 54 924
27/08/20 12.9° 21.7° 30.4° 11.7° 21.7° 34.4° 2.4km/h dir SE 17.7km/h dir 0 12.9° 0 15.8 1010.3 1015.3 1019.1 33% 60% 91% 939 68 612
28/08/20 14.8° 17.6° 23.6° 15° 17.2° 23.9° 5.5km/h dir SE 32.2km/h dir 0 14.4° 30 45.8 54.8mm/h 1005.6 1007.3 1010.3 54% 79% 94% 229 9 718
29/08/20 14.3° 17.7° 23.1° 14.4° 18.8° 27.8° 3.4km/h dir N 27.4km/h dir 0 14.3° 0 45.8 1004.1 1005.6 1007.4 49% 77.6% 96% 1118 48 210
30/08/20 12.2° 15.4° 18.3° 12.2° 16.1° 22.8° 3.7km/h dir O 17.7km/h dir 0 12.2° 1.4 47.2 2mm/h 1005.2 1010.4 1016.3 68% 83.6% 93% 849 23 258
31/08/20 10.4° 15.8° 21.6° 10° 16.6° 26.7° 5.6km/h dir ONO 29km/h dir 0 10.4° 0.2 47.4 1016.1 1016.8 1017.5 59% 80.2% 96% 993 54 324

RETOUR ACCUEIL


Date de création : 01/09/2020 : 22:14
Catégorie : ANNEE 2020 - MOIS PASSES - AOUT 2020
Page lue 52 fois


Réactions à cet article


Personne n'a encore laissé de commentaire.
Soyez donc le premier !